Terminal Aerodrome Forecast
Issued by NWS

Home | Current Version | Previous Version | Text Only | Print | Product List | Glossary On
Versions: 1 2 3 4 5 6 7 8 9 10 11 12 13 14
041
FTUS41 KBTV 292032 AAA
TAFRUT
TAF AMD
KRUT 292032Z 2921/3018 14009G20KT P6SM VCSH SCT050 BKN200
      TEMPO 2921/2923 3SM -TSRA BKN035CB
     FM300000 15007KT P6SM SCT050
     FM301400 18007KT P6SM VCSH OVC050
      AMD LTD TO CLD VIS AND WIND=

USA.gov is the U.S. government's official web portal to all federal, state and local government web resources and services.